createdAt,value
2023-08-14T00:00:51.019Z,20.36
2023-08-14T00:03:17.708Z,20.36
2023-08-14T00:05:44.243Z,20.37
2023-08-14T00:08:10.893Z,20.13
2023-08-14T00:10:37.419Z,19.96
2023-08-14T00:13:04.208Z,19.90
2023-08-14T00:15:30.858Z,19.66
2023-08-14T00:17:57.442Z,19.44
2023-08-14T00:20:23.922Z,19.09
2023-08-14T00:22:50.370Z,18.98
2023-08-14T00:25:16.927Z,18.96
2023-08-14T00:27:43.458Z,19.01
2023-08-14T00:30:10.116Z,19.00
2023-08-14T00:32:36.777Z,19.03
2023-08-14T00:35:03.771Z,19.11
2023-08-14T00:37:41.396Z,19.15
2023-08-14T00:40:08.560Z,19.16
2023-08-14T00:42:35.041Z,19.13
2023-08-14T00:45:01.541Z,19.15
2023-08-14T00:47:28.050Z,19.17
2023-08-14T00:49:54.651Z,19.22
2023-08-14T00:52:21.162Z,19.29
2023-08-14T00:54:47.658Z,19.28
2023-08-14T00:57:14.277Z,19.26
2023-08-14T00:59:40.832Z,19.26
2023-08-14T01:02:07.371Z,19.25
2023-08-14T01:04:33.942Z,19.22
2023-08-14T01:07:02.759Z,19.21
2023-08-14T01:09:31.261Z,19.22
2023-08-14T01:12:08.530Z,19.28
2023-08-14T01:14:36.340Z,19.30
2023-08-14T01:17:09.907Z,19.29
2023-08-14T01:19:41.481Z,19.31
2023-08-14T01:22:17.775Z,19.28
2023-08-14T01:25:05.233Z,19.20
2023-08-14T01:27:31.863Z,19.25
2023-08-14T01:29:59.993Z,19.30
2023-08-14T01:32:26.792Z,19.28
2023-08-14T01:34:56.005Z,19.24
2023-08-14T01:37:28.237Z,19.19
2023-08-14T01:40:08.263Z,19.16
2023-08-14T01:42:38.283Z,19.14
2023-08-14T01:45:17.366Z,19.15
2023-08-14T01:47:46.704Z,19.17
2023-08-14T01:50:17.612Z,19.13
2023-08-14T01:52:44.449Z,19.11
2023-08-14T01:55:10.927Z,19.08
2023-08-14T01:57:37.452Z,19.04
2023-08-14T02:00:06.491Z,19.07
2023-08-14T02:02:39.176Z,19.06
2023-08-14T02:05:05.887Z,19.08
2023-08-14T02:07:32.348Z,19.07
2023-08-14T02:09:58.813Z,19.05
2023-08-14T02:12:25.423Z,18.99
2023-08-14T02:14:51.973Z,18.98
2023-08-14T02:17:18.416Z,19.07
2023-08-14T02:19:44.863Z,19.13
2023-08-14T02:22:11.307Z,19.11
2023-08-14T02:24:37.787Z,19.10
2023-08-14T02:27:04.492Z,19.13
2023-08-14T02:29:33.568Z,19.14
2023-08-14T02:32:00.022Z,19.07
2023-08-14T02:34:35.083Z,19.06
2023-08-14T02:37:01.832Z,19.11
2023-08-14T02:39:28.360Z,19.11
2023-08-14T02:41:54.823Z,19.12
2023-08-14T02:44:21.280Z,19.13
2023-08-14T02:46:47.706Z,19.10
2023-08-14T02:49:14.166Z,19.09
2023-08-14T02:51:40.712Z,19.07
2023-08-14T02:54:07.285Z,19.04
2023-08-14T02:56:33.734Z,19.00
2023-08-14T02:59:00.179Z,19.00
2023-08-14T03:01:26.715Z,19.00
2023-08-14T03:03:53.200Z,18.99
2023-08-14T03:06:19.750Z,18.93
2023-08-14T03:08:46.230Z,18.91
2023-08-14T03:11:12.717Z,18.88
2023-08-14T03:13:40.203Z,18.87
2023-08-14T03:16:07.278Z,18.86
2023-08-14T03:18:33.746Z,18.88
2023-08-14T03:21:00.217Z,18.89
2023-08-14T03:23:26.716Z,18.94
2023-08-14T03:25:53.180Z,18.91
2023-08-14T03:28:19.756Z,18.89
2023-08-14T03:30:49.694Z,18.94
2023-08-14T03:33:17.180Z,18.95
2023-08-14T03:35:44.532Z,18.95
2023-08-14T03:38:13.976Z,18.96
2023-08-14T03:40:40.489Z,18.94
2023-08-14T03:43:06.937Z,18.94
2023-08-14T03:45:33.392Z,18.94
2023-08-14T03:47:59.897Z,18.91
2023-08-14T03:50:26.516Z,18.86
2023-08-14T03:52:53.866Z,18.86
2023-08-14T03:55:21.556Z,18.87
2023-08-14T03:57:48.018Z,18.86
2023-08-14T04:00:14.837Z,18.85
2023-08-14T04:02:42.702Z,18.74
2023-08-14T04:05:09.352Z,18.66
2023-08-14T04:07:35.830Z,18.70
2023-08-14T04:10:02.391Z,18.68
2023-08-14T04:12:28.833Z,18.68
2023-08-14T04:14:55.268Z,18.72
2023-08-14T04:17:21.762Z,18.75
2023-08-14T04:19:48.201Z,18.79
2023-08-14T04:22:14.653Z,18.82
2023-08-14T04:24:41.105Z,18.83
2023-08-14T04:27:07.559Z,18.87
2023-08-14T04:29:34.022Z,18.88
2023-08-14T04:32:00.500Z,18.83
2023-08-14T04:34:26.974Z,18.89
2023-08-14T04:36:55.056Z,18.89
2023-08-14T04:39:21.610Z,18.87
2023-08-14T04:41:48.084Z,18.91
2023-08-14T04:44:15.961Z,18.95
2023-08-14T04:46:57.497Z,19.00
2023-08-14T04:49:26.349Z,19.03
2023-08-14T04:51:52.828Z,19.08
2023-08-14T04:54:19.472Z,19.08
2023-08-14T04:56:46.025Z,19.06
2023-08-14T04:59:12.566Z,19.08
2023-08-14T05:01:39.106Z,19.09
2023-08-14T05:04:06.776Z,19.13
2023-08-14T05:06:33.365Z,19.15
2023-08-14T05:09:02.185Z,19.15
2023-08-14T05:11:31.508Z,19.15
2023-08-14T05:13:57.956Z,19.16
2023-08-14T05:16:26.163Z,19.13
2023-08-14T05:18:52.791Z,19.15
2023-08-14T05:21:19.237Z,19.15
2023-08-14T05:23:45.708Z,19.16
2023-08-14T05:26:12.176Z,19.13
2023-08-14T05:28:38.728Z,19.14
2023-08-14T05:31:08.492Z,19.15
2023-08-14T05:33:35.293Z,19.19
2023-08-14T05:36:01.770Z,19.15
2023-08-14T05:38:28.250Z,19.16
2023-08-14T05:40:54.730Z,19.14
2023-08-14T05:43:21.182Z,19.16
2023-08-14T05:45:47.737Z,19.21
2023-08-14T05:48:15.408Z,19.22
2023-08-14T05:50:42.371Z,19.24
2023-08-14T05:53:09.633Z,19.26
2023-08-14T05:55:40.859Z,19.30
2023-08-14T05:58:08.254Z,19.32
2023-08-14T06:00:36.539Z,19.38
2023-08-14T06:03:03.930Z,19.44
2023-08-14T06:05:30.575Z,19.54
2023-08-14T06:07:57.755Z,19.62
2023-08-14T06:10:24.459Z,19.70
2023-08-14T06:12:51.444Z,19.76
2023-08-14T06:15:22.345Z,19.83
2023-08-14T06:17:49.616Z,19.90
2023-08-14T06:20:16.854Z,19.95
2023-08-14T06:22:45.259Z,19.99
2023-08-14T06:25:13.104Z,20.00
2023-08-14T06:27:40.650Z,20.10
2023-08-14T06:30:11.785Z,20.21
2023-08-14T06:32:39.409Z,20.29
2023-08-14T06:35:07.322Z,20.32
2023-08-14T06:37:34.560Z,20.38
2023-08-14T06:40:01.014Z,20.41
2023-08-14T06:42:27.478Z,20.46
2023-08-14T06:44:53.972Z,20.51
2023-08-14T06:47:20.485Z,20.58
2023-08-14T06:49:46.967Z,20.60
2023-08-14T06:52:14.783Z,20.65
2023-08-14T06:54:41.305Z,20.71
2023-08-14T06:57:09.025Z,20.78
2023-08-14T06:59:36.066Z,20.81
2023-08-14T07:02:02.616Z,20.88
2023-08-14T07:04:29.151Z,20.94
2023-08-14T07:06:55.686Z,20.97
2023-08-14T07:09:22.235Z,21.03
2023-08-14T07:11:48.936Z,21.08
2023-08-14T07:14:15.396Z,21.14
2023-08-14T07:16:41.975Z,21.22
2023-08-14T07:19:08.521Z,21.30
2023-08-14T07:21:34.987Z,21.37
2023-08-14T07:24:01.609Z,21.40
2023-08-14T07:26:28.137Z,21.45
2023-08-14T07:28:54.600Z,21.52
2023-08-14T07:31:21.069Z,21.62
2023-08-14T07:33:47.555Z,21.68
2023-08-14T07:36:14.021Z,21.77
2023-08-14T07:38:40.445Z,21.88
2023-08-14T07:41:06.996Z,21.98
2023-08-14T07:43:33.456Z,22.08
2023-08-14T07:45:59.923Z,22.20
2023-08-14T07:48:26.445Z,22.32
2023-08-14T07:50:54.104Z,22.46
2023-08-14T07:53:20.610Z,22.60
2023-08-14T07:55:49.243Z,22.74
2023-08-14T07:58:16.477Z,22.81
2023-08-14T08:00:43.530Z,22.95
2023-08-14T08:03:10.206Z,23.07
2023-08-14T08:05:37.318Z,23.15
2023-08-14T08:08:04.507Z,23.29
2023-08-14T08:10:31.130Z,23.29
2023-08-14T08:12:57.784Z,23.37
2023-08-14T08:15:24.256Z,23.45
2023-08-14T08:17:50.798Z,23.53
2023-08-14T08:20:17.450Z,23.55
2023-08-14T08:22:44.178Z,23.58
2023-08-14T08:25:10.619Z,23.67
2023-08-14T08:27:37.097Z,23.72
2023-08-14T08:30:04.608Z,23.65
2023-08-14T08:32:31.330Z,23.59
2023-08-14T08:34:58.060Z,23.53
2023-08-14T08:37:24.644Z,23.55
2023-08-14T08:39:53.691Z,23.65
2023-08-14T08:42:21.249Z,23.76
2023-08-14T08:44:50.883Z,23.90
2023-08-14T08:47:21.869Z,24.03
2023-08-14T08:49:48.455Z,24.21
2023-08-14T08:52:16.024Z,24.35
2023-08-14T08:54:43.028Z,24.34
2023-08-14T08:57:09.880Z,24.32
2023-08-14T08:59:38.388Z,24.34
2023-08-14T09:02:04.939Z,24.45
2023-08-14T09:04:31.529Z,24.57
2023-08-14T09:06:58.271Z,24.64
2023-08-14T09:09:24.914Z,24.71
2023-08-14T09:11:51.373Z,24.79
2023-08-14T09:14:18.738Z,24.94
2023-08-14T09:16:45.719Z,25.15
2023-08-14T09:19:15.882Z,25.34
2023-08-14T09:21:44.216Z,25.54
2023-08-14T09:24:12.843Z,25.72
2023-08-14T09:26:39.399Z,25.84
2023-08-14T09:29:06.028Z,25.98
2023-08-14T09:31:35.242Z,26.07
2023-08-14T09:34:02.524Z,26.15
2023-08-14T09:36:37.832Z,26.32
2023-08-14T09:39:04.944Z,26.46
2023-08-14T09:41:32.169Z,26.49
2023-08-14T09:44:02.225Z,26.55
2023-08-14T09:46:29.436Z,26.55
2023-08-14T09:48:56.769Z,26.59
2023-08-14T09:51:23.477Z,26.55
2023-08-14T09:53:54.318Z,26.60
2023-08-14T09:56:21.731Z,26.72
2023-08-14T09:58:49.183Z,26.93
2023-08-14T10:01:17.458Z,26.99
2023-08-14T10:03:47.482Z,27.06
2023-08-14T10:06:16.424Z,27.14
2023-08-14T10:08:45.843Z,27.18
2023-08-14T10:13:47.406Z,27.36
2023-08-14T10:16:28.363Z,27.43
2023-08-14T10:18:56.695Z,27.54
2023-08-14T10:21:29.694Z,27.51
2023-08-14T10:23:57.835Z,27.39
2023-08-14T10:26:27.641Z,27.54
2023-08-14T10:28:57.305Z,27.78
2023-08-14T10:31:24.446Z,27.94
2023-08-14T10:33:51.656Z,27.71
2023-08-14T10:36:21.748Z,27.87
2023-08-14T10:41:22.129Z,27.70
2023-08-14T10:43:54.255Z,27.91
2023-08-14T10:46:21.105Z,27.78
2023-08-14T10:48:50.103Z,27.35
2023-08-14T10:51:21.377Z,27.03
2023-08-14T10:53:47.867Z,26.89
2023-08-14T10:56:14.564Z,26.78
2023-08-14T10:58:48.516Z,26.64
2023-08-14T11:01:15.997Z,26.51
2023-08-14T11:03:58.491Z,26.49
2023-08-14T11:06:29.460Z,26.43
2023-08-14T11:09:16.066Z,26.70
2023-08-14T11:11:48.733Z,27.07
2023-08-14T11:14:15.512Z,27.05
2023-08-14T11:16:42.537Z,27.32
2023-08-14T11:19:09.218Z,27.68
2023-08-14T11:21:36.144Z,27.88
2023-08-14T11:24:11.323Z,27.70
2023-08-14T11:26:37.829Z,27.45
2023-08-14T11:29:04.493Z,27.26
2023-08-14T11:31:34.979Z,26.98
2023-08-14T11:34:07.720Z,26.77
2023-08-14T11:36:34.958Z,26.65
2023-08-14T11:39:01.896Z,26.52
2023-08-14T11:43:57.759Z,26.69
2023-08-14T11:46:25.156Z,26.88
2023-08-14T11:48:51.605Z,27.23
2023-08-14T11:51:19.329Z,27.65
2023-08-14T11:53:46.221Z,28.09
2023-08-14T11:56:13.312Z,28.40
2023-08-14T11:58:40.602Z,28.58
2023-08-14T12:01:09.115Z,28.75
2023-08-14T12:03:35.710Z,28.90
2023-08-14T12:06:05.180Z,28.58
2023-08-14T12:08:31.968Z,28.53
2023-08-14T12:10:58.950Z,28.91
2023-08-14T12:13:25.401Z,28.90
2023-08-14T12:15:53.085Z,29.05
2023-08-14T12:18:24.064Z,29.28
2023-08-14T12:20:52.234Z,29.23
2023-08-14T12:23:24.353Z,29.58
2023-08-14T12:25:51.965Z,30.11
2023-08-14T12:28:19.682Z,30.40
2023-08-14T12:30:47.998Z,30.42
2023-08-14T12:33:15.344Z,30.71
2023-08-14T12:35:41.814Z,30.91
2023-08-14T12:38:08.601Z,31.07
2023-08-14T12:40:35.347Z,31.20
2023-08-14T12:43:01.983Z,30.76
2023-08-14T12:45:29.049Z,30.30
2023-08-14T12:47:55.583Z,30.22
2023-08-14T12:50:22.076Z,30.23
2023-08-14T12:52:48.541Z,30.07
2023-08-14T12:55:18.975Z,29.73
2023-08-14T12:57:47.030Z,29.84
2023-08-14T13:00:14.559Z,30.02
2023-08-14T13:02:41.053Z,30.24
2023-08-14T13:05:07.836Z,30.38
2023-08-14T13:07:34.399Z,30.22
2023-08-14T13:10:01.214Z,30.15
2023-08-14T13:12:27.752Z,30.01
2023-08-14T13:14:55.379Z,30.17
2023-08-14T13:17:22.286Z,30.29
2023-08-14T13:19:49.153Z,30.25
2023-08-14T13:22:17.097Z,30.22
2023-08-14T13:24:46.342Z,30.13
2023-08-14T13:27:12.847Z,29.85
2023-08-14T13:29:39.348Z,29.53
2023-08-14T13:32:06.301Z,29.02
2023-08-14T13:34:33.044Z,28.89
2023-08-14T13:36:59.489Z,28.73
2023-08-14T13:39:26.041Z,28.48
2023-08-14T13:41:52.677Z,28.36
2023-08-14T13:44:19.173Z,28.37
2023-08-14T13:46:45.670Z,28.43
2023-08-14T13:49:12.238Z,28.39
2023-08-14T13:51:38.797Z,28.41
2023-08-14T13:54:06.367Z,28.47
2023-08-14T13:56:32.833Z,28.52
2023-08-14T13:59:00.487Z,28.57
2023-08-14T14:01:27.709Z,28.90
2023-08-14T14:03:54.845Z,29.43
2023-08-14T14:06:21.601Z,30.80
2023-08-14T14:08:48.136Z,31.46
2023-08-14T14:11:14.830Z,32.05
2023-08-14T14:13:41.347Z,32.95
2023-08-14T14:16:08.623Z,33.62
2023-08-14T14:18:35.250Z,33.64
2023-08-14T14:21:01.722Z,33.48
2023-08-14T14:23:28.211Z,32.94
2023-08-14T14:25:54.662Z,33.14
2023-08-14T14:28:21.129Z,33.44
2023-08-14T14:30:47.587Z,33.37
2023-08-14T14:33:14.029Z,33.62
2023-08-14T14:35:40.547Z,33.58
2023-08-14T14:38:07.018Z,33.51
2023-08-14T14:40:33.490Z,33.56
2023-08-14T14:42:59.955Z,33.88
2023-08-14T14:45:34.583Z,34.05
2023-08-14T14:48:02.566Z,34.10
2023-08-14T14:50:30.682Z,34.44
2023-08-14T14:52:57.927Z,34.51
2023-08-14T14:55:27.242Z,34.73
2023-08-14T14:57:53.772Z,34.79
2023-08-14T15:00:20.313Z,34.89
2023-08-14T15:02:46.891Z,34.99
2023-08-14T15:05:25.728Z,34.81
2023-08-14T15:07:53.992Z,35.18
2023-08-14T15:10:20.609Z,34.94
2023-08-14T15:12:47.456Z,34.90
2023-08-14T15:15:14.022Z,35.09
2023-08-14T15:17:44.587Z,35.48
2023-08-14T15:20:13.089Z,35.56
2023-08-14T15:22:39.821Z,35.37
2023-08-14T15:25:08.607Z,35.03
2023-08-14T15:27:35.130Z,35.20
2023-08-14T15:30:01.610Z,35.59
2023-08-14T15:32:28.092Z,35.69
2023-08-14T15:34:54.565Z,35.91
2023-08-14T15:37:21.256Z,35.97
2023-08-14T15:39:49.769Z,35.39
2023-08-14T15:42:18.012Z,35.51
2023-08-14T15:44:44.616Z,35.43
2023-08-14T15:47:11.129Z,35.00
2023-08-14T15:49:37.579Z,35.32
2023-08-14T15:52:04.119Z,35.27
2023-08-14T15:54:46.776Z,34.97
2023-08-14T15:57:17.262Z,35.32
2023-08-14T15:59:44.110Z,35.60
2023-08-14T16:02:10.578Z,35.43
2023-08-14T16:04:37.696Z,34.72
2023-08-14T16:07:04.215Z,34.94
2023-08-14T16:09:30.736Z,35.47
2023-08-14T16:11:59.785Z,35.65
2023-08-14T16:14:26.438Z,35.89
2023-08-14T16:16:52.946Z,35.74
2023-08-14T16:19:21.793Z,35.47
2023-08-14T16:21:48.544Z,35.06
2023-08-14T16:24:15.120Z,34.43
2023-08-14T16:26:41.565Z,34.34
2023-08-14T16:29:08.017Z,34.45
2023-08-14T16:31:34.481Z,34.77
2023-08-14T16:34:00.998Z,34.45
2023-08-14T16:36:27.468Z,33.81
2023-08-14T16:38:53.972Z,33.58
2023-08-14T16:41:20.492Z,33.18
2023-08-14T16:43:46.916Z,33.79
2023-08-14T16:46:13.479Z,33.33
2023-08-14T16:48:39.934Z,33.13
2023-08-14T16:51:06.498Z,33.72
2023-08-14T16:53:32.955Z,33.89
2023-08-14T16:55:59.489Z,34.43
2023-08-14T16:58:25.972Z,34.91
2023-08-14T17:00:54.000Z,35.17
2023-08-14T17:03:20.561Z,34.78
2023-08-14T17:05:47.102Z,34.09
2023-08-14T17:08:13.577Z,33.67
2023-08-14T17:10:40.254Z,33.62
2023-08-14T17:13:06.764Z,33.60
2023-08-14T17:15:43.125Z,33.49
2023-08-14T17:18:09.640Z,33.30
2023-08-14T17:20:36.196Z,33.08
2023-08-14T17:23:02.838Z,32.75
2023-08-14T17:25:29.293Z,32.41
2023-08-14T17:27:55.727Z,32.22
2023-08-14T17:30:22.227Z,31.88
2023-08-14T17:32:53.423Z,31.50
2023-08-14T17:35:20.787Z,31.28
2023-08-14T17:37:47.471Z,31.09
2023-08-14T17:40:14.796Z,31.03
2023-08-14T17:42:41.820Z,30.89
2023-08-14T17:45:08.573Z,30.71
2023-08-14T17:47:35.313Z,30.55
2023-08-14T17:50:02.707Z,30.28
2023-08-14T17:52:29.319Z,30.10
2023-08-14T17:54:55.803Z,29.67
2023-08-14T17:57:22.452Z,29.57
2023-08-14T17:59:49.215Z,29.39
2023-08-14T18:02:15.663Z,29.23
2023-08-14T18:04:42.163Z,29.08
2023-08-14T18:07:08.620Z,28.94
2023-08-14T18:09:35.122Z,28.77
2023-08-14T18:12:01.566Z,28.61
2023-08-14T18:14:28.098Z,28.43
2023-08-14T18:16:54.570Z,28.22
2023-08-14T18:21:50.406Z,27.69
2023-08-14T18:24:17.042Z,27.43
2023-08-14T18:26:43.454Z,27.41
2023-08-14T18:29:09.999Z,27.37
2023-08-14T18:31:37.169Z,27.28
2023-08-14T18:34:03.780Z,27.07
2023-08-14T18:36:30.952Z,26.91
2023-08-14T18:38:57.491Z,26.76
2023-08-14T18:41:23.966Z,26.63
2023-08-14T18:43:50.398Z,26.63
2023-08-14T18:46:16.955Z,26.51
2023-08-14T18:48:43.470Z,26.42
2023-08-14T18:51:09.934Z,26.33
2023-08-14T18:53:36.949Z,26.27
2023-08-14T18:56:03.477Z,26.16
2023-08-14T18:58:30.096Z,26.07
2023-08-14T19:00:56.651Z,25.95
2023-08-14T19:03:23.298Z,25.87
2023-08-14T19:05:55.567Z,25.76
2023-08-14T19:08:22.014Z,25.71
2023-08-14T19:10:48.476Z,25.60
2023-08-14T19:13:14.924Z,25.42
2023-08-14T19:15:49.198Z,25.32
2023-08-14T19:18:16.720Z,25.14
2023-08-14T19:20:44.218Z,25.04
2023-08-14T19:23:11.266Z,24.92
2023-08-14T19:25:38.532Z,24.84
2023-08-14T19:28:19.395Z,24.78
2023-08-14T19:30:47.953Z,24.78
2023-08-14T19:33:14.916Z,24.71
2023-08-14T19:35:41.593Z,24.70
2023-08-14T19:38:08.048Z,24.60
2023-08-14T19:40:37.736Z,24.57
2023-08-14T19:43:04.489Z,24.47
2023-08-14T19:45:31.044Z,24.45
2023-08-14T19:47:57.558Z,24.39
2023-08-14T19:50:24.060Z,24.40
2023-08-14T19:52:50.500Z,24.31
2023-08-14T19:55:17.026Z,24.27
2023-08-14T19:57:43.483Z,24.21
2023-08-14T20:00:10.929Z,24.16
2023-08-14T20:02:37.466Z,24.08
2023-08-14T20:05:05.898Z,23.93
2023-08-14T20:07:32.577Z,23.86
2023-08-14T20:10:01.224Z,23.87
2023-08-14T20:12:27.821Z,23.88
2023-08-14T20:14:54.270Z,23.84
2023-08-14T20:17:21.006Z,23.69
2023-08-14T20:19:48.688Z,23.61
2023-08-14T20:22:15.122Z,23.56
2023-08-14T20:24:41.620Z,23.50
2023-08-14T20:27:08.837Z,23.41
2023-08-14T20:29:35.297Z,23.28
2023-08-14T20:32:02.863Z,23.24
2023-08-14T20:34:29.369Z,23.17
2023-08-14T20:36:55.801Z,23.20
2023-08-14T20:39:23.333Z,23.16
2023-08-14T20:41:49.882Z,23.11
2023-08-14T20:44:16.336Z,23.08
2023-08-14T20:46:42.860Z,23.04
2023-08-14T20:49:09.366Z,22.98
2023-08-14T20:51:35.853Z,22.89
2023-08-14T20:54:02.319Z,22.91
2023-08-14T20:56:28.841Z,22.95
2023-08-14T20:58:55.322Z,23.05
2023-08-14T21:01:21.790Z,23.05
2023-08-14T21:03:48.415Z,22.97
2023-08-14T21:06:17.187Z,22.86
2023-08-14T21:08:44.815Z,22.71
2023-08-14T21:11:11.264Z,22.72
2023-08-14T21:13:37.687Z,22.84
2023-08-14T21:16:04.380Z,22.88
2023-08-14T21:18:30.913Z,22.85
2023-08-14T21:20:57.353Z,22.76
2023-08-14T21:23:23.863Z,22.70
2023-08-14T21:25:50.438Z,22.70
2023-08-14T21:28:17.003Z,22.73
2023-08-14T21:30:43.666Z,22.72
2023-08-14T21:33:10.155Z,22.62
2023-08-14T21:35:36.665Z,22.46
2023-08-14T21:38:04.119Z,22.41
2023-08-14T21:40:30.552Z,22.39
2023-08-14T21:42:58.345Z,22.51
2023-08-14T21:45:24.833Z,22.50
2023-08-14T21:47:51.318Z,22.51
2023-08-14T21:50:17.895Z,22.51
2023-08-14T21:52:44.352Z,22.52
2023-08-14T21:55:10.788Z,22.55
2023-08-14T21:57:37.234Z,22.57
2023-08-14T22:00:05.424Z,22.60
2023-08-14T22:02:32.238Z,22.58
2023-08-14T22:04:58.725Z,22.54
2023-08-14T22:07:25.224Z,22.51
2023-08-14T22:09:51.678Z,22.43
2023-08-14T22:12:18.127Z,22.44
2023-08-14T22:14:45.140Z,22.39
2023-08-14T22:17:11.662Z,22.34
2023-08-14T22:19:38.219Z,22.21
2023-08-14T22:22:04.704Z,22.16
2023-08-14T22:24:40.664Z,22.12
2023-08-14T22:27:07.565Z,22.07
2023-08-14T22:29:34.061Z,21.97
2023-08-14T22:32:00.515Z,21.98
2023-08-14T22:34:26.984Z,22.00
2023-08-14T22:36:53.454Z,22.02
2023-08-14T22:39:19.897Z,22.04
2023-08-14T22:41:46.340Z,22.04
2023-08-14T22:44:12.787Z,22.00
2023-08-14T22:46:39.218Z,21.86
2023-08-14T22:49:05.657Z,21.84
2023-08-14T22:51:32.088Z,21.82
2023-08-14T22:53:58.554Z,21.79
2023-08-14T22:56:24.973Z,21.86
2023-08-14T22:58:51.409Z,21.89
2023-08-14T23:01:17.875Z,21.90
2023-08-14T23:03:44.480Z,21.92
2023-08-14T23:06:10.966Z,21.94
2023-08-14T23:08:37.453Z,21.91
2023-08-14T23:11:03.908Z,21.89
2023-08-14T23:13:30.347Z,21.86
2023-08-14T23:15:56.836Z,21.82
2023-08-14T23:18:23.328Z,21.80
2023-08-14T23:20:49.781Z,21.79
2023-08-14T23:23:16.220Z,21.71
2023-08-14T23:25:42.716Z,21.67
2023-08-14T23:28:09.195Z,21.65
2023-08-14T23:30:39.237Z,21.58
2023-08-14T23:33:06.922Z,21.53
2023-08-14T23:35:33.372Z,21.51
2023-08-14T23:37:59.814Z,21.50
2023-08-14T23:40:26.253Z,21.53
2023-08-14T23:42:52.702Z,21.51
2023-08-14T23:45:19.258Z,21.38
2023-08-14T23:47:45.799Z,21.36
2023-08-14T23:50:12.308Z,21.37
2023-08-14T23:52:38.740Z,21.36
2023-08-14T23:55:05.639Z,21.16
2023-08-14T23:57:32.100Z,21.09
2023-08-14T23:59:58.634Z,21.12
